Time;durP1;ratioP1;P1;durP2;ratioP2;P2;SDS_P1;SDS_P2;PMS_P1;PMS_P2;Temp;Humidity;BMP_temperature;BMP_pressure;BME280_temperature;BME280_humidity;BME280_pressure;Samples;Min_cycle;Max_cycle;Signal;HPM_P1;HPM_P2
2023/12/17 00:01:21;;;;;;;10.43;3.80;;;;;;;;;;5034164;28;20053;-70
2023/12/17 00:03:47;;;;;;;8.18;3.35;;;;;;;;;;5016406;28;20057;-71
2023/12/17 00:06:13;;;;;;;9.77;3.95;;;;;;;;;;5000987;28;20056;-70
2023/12/17 00:08:40;;;;;;;8.23;4.20;;;;;;;;;;5034182;28;20053;-70
2023/12/17 00:11:06;;;;;;;11.35;4.38;;;;;;;;;;5016400;28;20084;-71
2023/12/17 00:13:35;;;;;;;9.73;4.22;;;;;;;;;;5033616;28;20498;-70
2023/12/17 00:16:01;;;;;;;10.30;3.92;;;;;;;;;;5033657;28;20490;-70
2023/12/17 00:18:27;;;;;;;10.82;3.85;;;;;;;;;;5033886;28;20446;-70
2023/12/17 00:20:53;;;;;;;11.70;4.32;;;;;;;;;;5034369;28;20103;-69
2023/12/17 00:23:19;;;;;;;8.27;3.38;;;;;;;;;;5034293;28;20037;-70
2023/12/17 00:25:45;;;;;;;11.02;4.15;;;;;;;;;;5033653;28;20092;-71
2023/12/17 00:28:11;;;;;;;8.57;3.38;;;;;;;;;;5000032;28;20536;-72
2023/12/17 00:30:37;;;;;;;10.63;3.75;;;;;;;;;;5033599;28;20041;-71
2023/12/17 00:33:04;;;;;;;11.48;3.80;;;;;;;;;;5016240;28;20057;-71
2023/12/17 00:35:30;;;;;;;12.43;4.45;;;;;;;;;;5033617;28;20046;-71
2023/12/17 00:37:56;;;;;;;9.00;4.28;;;;;;;;;;5016192;28;20049;-70
2023/12/17 00:40:22;;;;;;;12.07;4.57;;;;;;;;;;5033958;28;20118;-70
2023/12/17 00:42:48;;;;;;;10.68;4.32;;;;;;;;;;5033509;28;20038;-71
2023/12/17 00:45:14;;;;;;;10.27;4.35;;;;;;;;;;5033575;28;20041;-69
2023/12/17 00:47:40;;;;;;;11.30;4.70;;;;;;;;;;5016396;28;20395;-71
2023/12/17 00:50:06;;;;;;;10.73;4.60;;;;;;;;;;5033454;28;20053;-72
2023/12/17 00:52:33;;;;;;;18.63;4.87;;;;;;;;;;5015805;28;20050;-71
2023/12/17 00:54:59;;;;;;;10.85;4.53;;;;;;;;;;5034273;28;20041;-70
2023/12/17 00:57:26;;;;;;;10.38;4.63;;;;;;;;;;5033411;28;20057;-71
2023/12/17 00:59:52;;;;;;;10.05;4.55;;;;;;;;;;5033792;28;20095;-72
2023/12/17 01:02:18;;;;;;;9.27;4.80;;;;;;;;;;5033253;28;20041;-70
2023/12/17 01:04:44;;;;;;;10.55;4.43;;;;;;;;;;4999413;28;20045;-70
2023/12/17 01:07:10;;;;;;;12.40;5.10;;;;;;;;;;5033845;28;20052;-71
2023/12/17 01:09:36;;;;;;;9.80;4.57;;;;;;;;;;5011609;28;20136;-69
2023/12/17 01:12:05;;;;;;;12.57;4.80;;;;;;;;;;5013621;28;20053;-70
2023/12/17 01:14:34;;;;;;;10.48;4.68;;;;;;;;;;5012994;28;20053;-70
2023/12/17 01:17:04;;;;;;;13.52;4.90;;;;;;;;;;5013937;28;20322;-71
2023/12/17 01:19:30;;;;;;;12.02;4.85;;;;;;;;;;5013490;28;20045;-72
2023/12/17 01:21:57;;;;;;;10.50;4.90;;;;;;;;;;5013421;28;20082;-71
2023/12/17 01:24:23;;;;;;;12.63;4.93;;;;;;;;;;5013475;28;20054;-71
2023/12/17 01:26:49;;;;;;;10.35;5.03;;;;;;;;;;5028183;28;20121;-70
2023/12/17 01:29:15;;;;;;;12.18;4.85;;;;;;;;;;5013273;28;20056;-71
2023/12/17 01:31:42;;;;;;;15.38;5.10;;;;;;;;;;5013270;28;20050;-69
2023/12/17 01:34:08;;;;;;;11.52;4.82;;;;;;;;;;5013070;28;20561;-69
2023/12/17 01:36:34;;;;;;;13.88;5.38;;;;;;;;;;5013781;28;20136;-71
2023/12/17 01:39:00;;;;;;;9.60;3.33;;;;;;;;;;5013203;28;20547;-72
2023/12/17 01:41:26;;;;;;;11.82;5.18;;;;;;;;;;5013242;28;20053;-72
2023/12/17 01:43:52;;;;;;;14.38;5.32;;;;;;;;;;5013433;28;20081;-70
2023/12/17 01:46:19;;;;;;;13.40;5.40;;;;;;;;;;5013187;28;20116;-71
2023/12/17 01:48:45;;;;;;;12.82;5.50;;;;;;;;;;5013048;28;20053;-70
2023/12/17 01:51:11;;;;;;;11.65;5.13;;;;;;;;;;5013199;28;20125;-71
2023/12/17 01:53:38;;;;;;;11.45;5.38;;;;;;;;;;5012988;28;20081;-73
2023/12/17 01:56:05;;;;;;;13.93;4.93;;;;;;;;;;4996047;28;20180;-71
2023/12/17 01:58:31;;;;;;;;;;;;;;;;;;5013514;28;20045;-70
2023/12/17 02:00:58;;;;;;;13.93;5.77;;;;;;;;;;5012941;28;19967;-71
2023/12/17 02:03:24;;;;;;;12.73;5.35;;;;;;;;;;5012926;28;20046;-71
2023/12/17 02:05:50;;;;;;;13.13;5.20;;;;;;;;;;5017370;28;20049;-71
2023/12/17 02:08:16;;;;;;;14.00;5.78;;;;;;;;;;5015207;28;20057;-71
2023/12/17 02:10:42;;;;;;;12.38;5.60;;;;;;;;;;5016481;28;20062;-71
2023/12/17 02:13:10;;;;;;;15.00;5.72;;;;;;;;;;5015289;28;20045;-71
2023/12/17 02:15:38;;;;;;;13.35;5.50;;;;;;;;;;5016501;28;20060;-70
2023/12/17 02:18:05;;;;;;;13.45;5.53;;;;;;;;;;5015211;28;20052;-71
2023/12/17 02:20:31;;;;;;;12.63;5.53;;;;;;;;;;5017137;28;20149;-69
2023/12/17 02:22:58;;;;;;;17.63;5.78;;;;;;;;;;5016205;28;20112;-70
2023/12/17 02:25:24;;;;;;;16.88;5.57;;;;;;;;;;5031510;28;20152;-70
2023/12/17 02:27:51;;;;;;;14.50;5.93;;;;;;;;;;5015235;28;20096;-72
2023/12/17 02:30:17;;;;;;;12.85;5.72;;;;;;;;;;5016108;28;20045;-71
2023/12/17 02:32:43;;;;;;;13.13;5.20;;;;;;;;;;5016043;28;20050;-71
2023/12/17 02:35:09;;;;;;;15.75;5.82;;;;;;;;;;5015834;28;20392;-70
2023/12/17 02:37:35;;;;;;;13.82;5.65;;;;;;;;;;5015814;28;20491;-71
2023/12/17 02:40:01;;;;;;;12.18;5.70;;;;;;;;;;5015965;28;20054;-69
2023/12/17 02:42:27;;;;;;;14.70;5.85;;;;;;;;;;5015876;28;20058;-71
2023/12/17 02:44:53;;;;;;;18.08;5.65;;;;;;;;;;5014587;28;20129;-71
2023/12/17 02:47:19;;;;;;;12.32;5.13;;;;;;;;;;5014730;28;20050;-71
2023/12/17 02:49:46;;;;;;;16.10;5.28;;;;;;;;;;5015737;28;20053;-70
2023/12/17 02:52:12;;;;;;;13.68;5.13;;;;;;;;;;5014770;28;20183;-72
2023/12/17 02:54:38;;;;;;;14.98;5.00;;;;;;;;;;4998662;28;20495;-71
2023/12/17 02:57:04;;;;;;;12.35;4.68;;;;;;;;;;5015664;28;20131;-72
2023/12/17 02:59:30;;;;;;;13.70;5.22;;;;;;;;;;5015343;28;20517;-71
2023/12/17 03:01:56;;;;;;;13.95;4.75;;;;;;;;;;5015429;28;20046;-71
2023/12/17 03:04:23;;;;;;;12.18;5.18;;;;;;;;;;5014519;28;20438;-70
2023/12/17 03:06:49;;;;;;;12.73;5.03;;;;;;;;;;5014437;28;20052;-72
2023/12/17 03:09:16;;;;;;;13.15;5.13;;;;;;;;;;4996130;28;20546;-71
2023/12/17 03:11:42;;;;;;;10.95;4.25;;;;;;;;;;5014413;28;20107;-71
2023/12/17 03:14:08;;;;;;;12.30;5.03;;;;;;;;;;5015276;28;20133;-72
2023/12/17 03:16:34;;;;;;;11.55;5.10;;;;;;;;;;5014329;28;20182;-72
2023/12/17 03:19:01;;;;;;;9.93;4.07;;;;;;;;;;5015053;28;20053;-72
2023/12/17 03:21:27;;;;;;;12.93;5.32;;;;;;;;;;5015722;28;20050;-70
2023/12/17 03:23:53;;;;;;;15.88;5.10;;;;;;;;;;5014163;28;20054;-71
2023/12/17 03:26:20;;;;;;;14.98;5.45;;;;;;;;;;5015171;28;20132;-71
2023/12/17 03:28:46;;;;;;;12.77;5.90;;;;;;;;;;5015177;28;20081;-72
2023/12/17 03:31:14;;;;;;;10.43;5.00;;;;;;;;;;5015249;28;20288;-71
2023/12/17 03:33:41;;;;;;;13.95;5.85;;;;;;;;;;5013890;28;20495;-72
2023/12/17 03:36:07;;;;;;;12.13;4.90;;;;;;;;;;4997709;28;20133;-69
2023/12/17 03:38:33;;;;;;;11.13;5.25;;;;;;;;;;5014048;28;20497;-70
2023/12/17 03:40:59;;;;;;;13.50;5.35;;;;;;;;;;5014646;28;20128;-70
2023/12/17 03:43:25;;;;;;;13.75;4.90;;;;;;;;;;5014757;28;20064;-71
2023/12/17 03:45:51;;;;;;;11.80;5.15;;;;;;;;;;5013615;28;20502;-71
2023/12/17 03:48:18;;;;;;;12.75;5.32;;;;;;;;;;5014801;28;20115;-73
2023/12/17 03:50:44;;;;;;;14.07;6.25;;;;;;;;;;5013838;28;20049;-72
2023/12/17 03:53:10;;;;;;;13.73;5.32;;;;;;;;;;5014681;28;20390;-71
2023/12/17 03:55:37;;;;;;;13.32;5.05;;;;;;;;;;5013507;28;20046;-71
2023/12/17 03:58:03;;;;;;;11.20;5.30;;;;;;;;;;5013637;28;20056;-73
2023/12/17 04:00:30;;;;;;;11.95;4.60;;;;;;;;;;5013608;28;20052;-71
2023/12/17 04:02:56;;;;;;;13.20;5.30;;;;;;;;;;5014398;28;20042;-73
2023/12/17 04:05:27;;;;;;;16.63;5.55;;;;;;;;;;5013260;28;20112;-73
2023/12/17 04:07:53;;;;;;;14.40;5.63;;;;;;;;;;5014299;28;20052;-72
2023/12/17 04:10:19;;;;;;;13.07;5.15;;;;;;;;;;5016980;28;20148;-72
2023/12/17 04:12:45;;;;;;;15.48;5.18;;;;;;;;;;5049670;28;20360;-72
2023/12/17 04:15:12;;;;;;;11.75;5.32;;;;;;;;;;5033959;28;20049;-71
2023/12/17 04:17:38;;;;;;;13.15;6.05;;;;;;;;;;5016889;28;20046;-73
2023/12/17 04:20:04;;;;;;;13.15;5.82;;;;;;;;;;5016653;28;20049;-71
2023/12/17 04:22:30;;;;;;;14.97;5.73;;;;;;;;;;5033555;28;20081;-72
2023/12/17 04:24:57;;;;;;;11.77;5.20;;;;;;;;;;5016212;28;20284;-73
2023/12/17 04:27:23;;;;;;;11.40;6.03;;;;;;;;;;5016028;28;20064;-71
2023/12/17 04:29:49;;;;;;;12.57;5.80;;;;;;;;;;5034366;28;20501;-72
2023/12/17 04:32:15;;;;;;;12.27;6.05;;;;;;;;;;5017041;28;20058;-72
2023/12/17 04:34:41;;;;;;;12.82;5.32;;;;;;;;;;5033686;28;20143;-73
2023/12/17 04:37:07;;;;;;;15.35;6.28;;;;;;;;;;5048941;28;20049;-72
2023/12/17 04:39:33;;;;;;;18.42;6.28;;;;;;;;;;5016229;28;20070;-71
2023/12/17 04:41:59;;;;;;;12.75;5.80;;;;;;;;;;5015920;28;20136;-72
2023/12/17 04:44:26;;;;;;;11.60;5.78;;;;;;;;;;5033561;28;20128;-72
2023/12/17 04:46:52;;;;;;;11.48;5.82;;;;;;;;;;5033511;28;20046;-70
2023/12/17 04:49:18;;;;;;;14.00;5.70;;;;;;;;;;5034140;28;20429;-72
2023/12/17 04:51:44;;;;;;;10.43;5.47;;;;;;;;;;5033518;28;20045;-72
2023/12/17 04:54:10;;;;;;;12.50;5.30;;;;;;;;;;4999490;28;20152;-70
2023/12/17 04:56:37;;;;;;;12.13;5.70;;;;;;;;;;5015977;28;20136;-74
2023/12/17 04:59:03;;;;;;;10.82;5.55;;;;;;;;;;5033332;28;20049;-72
2023/12/17 05:01:29;;;;;;;12.45;5.30;;;;;;;;;;5032908;28;20533;-73
2023/12/17 05:03:55;;;;;;;12.77;5.00;;;;;;;;;;5015703;28;20115;-72
2023/12/17 05:06:21;;;;;;;11.60;5.05;;;;;;;;;;5034017;28;20374;-73
2023/12/17 05:08:47;;;;;;;14.38;5.97;;;;;;;;;;5015589;28;20061;-71
2023/12/17 05:11:13;;;;;;;11.95;5.15;;;;;;;;;;5033440;28;20053;-73
2023/12/17 05:13:39;;;;;;;11.02;5.50;;;;;;;;;;5033318;28;20084;-72
2023/12/17 05:16:06;;;;;;;9.98;5.05;;;;;;;;;;5033265;28;20053;-72
2023/12/17 05:18:32;;;;;;;13.23;5.13;;;;;;;;;;5015301;28;20528;-73
2023/12/17 05:20:58;;;;;;;8.30;3.25;;;;;;;;;;5033486;28;20437;-72
2023/12/17 05:23:24;;;;;;;12.05;5.43;;;;;;;;;;5033097;28;20041;-71
2023/12/17 05:25:50;;;;;;;13.43;5.88;;;;;;;;;;5016585;28;20386;-70
2023/12/17 05:28:16;;;;;;;11.25;5.57;;;;;;;;;;5033315;28;20196;-72
2023/12/17 05:30:42;;;;;;;13.75;5.82;;;;;;;;;;5033099;28;20054;-72
2023/12/17 05:33:08;;;;;;;12.57;5.40;;;;;;;;;;5032984;28;20072;-72
2023/12/17 05:35:34;;;;;;;12.45;4.70;;;;;;;;;;5015658;28;20386;-72
2023/12/17 05:38:00;;;;;;;9.57;4.70;;;;;;;;;;5033658;28;20383;-71
2023/12/17 05:40:26;;;;;;;10.65;5.00;;;;;;;;;;5036907;28;20045;-72
2023/12/17 05:42:52;;;;;;;10.93;4.85;;;;;;;;;;5037658;28;20447;-71
2023/12/17 05:45:18;;;;;;;9.82;5.15;;;;;;;;;;5036800;28;20046;-73
2023/12/17 05:47:46;;;;;;;10.55;4.80;;;;;;;;;;5019192;28;20107;-72
2023/12/17 05:50:12;;;;;;;9.65;3.97;;;;;;;;;;5018926;28;20049;-73
2023/12/17 05:52:38;;;;;;;11.68;4.25;;;;;;;;;;5019330;28;20037;-73
2023/12/17 05:55:05;;;;;;;10.15;4.40;;;;;;;;;;5036645;28;20042;-72
2023/12/17 05:57:31;;;;;;;8.57;4.25;;;;;;;;;;5036648;28;20053;-72
2023/12/17 05:59:57;;;;;;;10.07;4.15;;;;;;;;;;5036688;28;20064;-72
2023/12/17 06:02:23;;;;;;;10.70;4.65;;;;;;;;;;5036335;28;20052;-73
2023/12/17 06:04:49;;;;;;;9.93;5.03;;;;;;;;;;5019078;28;20122;-73
2023/12/17 06:07:17;;;;;;;8.48;4.03;;;;;;;;;;5036373;28;20046;-73
2023/12/17 06:09:43;;;;;;;9.38;4.78;;;;;;;;;;5034669;28;20054;-72
2023/12/17 06:12:09;;;;;;;10.65;4.60;;;;;;;;;;5036310;28;20050;-73
2023/12/17 06:14:35;;;;;;;11.32;5.45;;;;;;;;;;5036202;28;20057;-73
2023/12/17 06:17:01;;;;;;;8.60;4.80;;;;;;;;;;5036268;28;20053;-73
2023/12/17 06:19:27;;;;;;;9.20;5.38;;;;;;;;;;5019016;28;20057;-73
2023/12/17 06:21:53;;;;;;;12.50;5.47;;;;;;;;;;5037233;28;20048;-73
2023/12/17 06:24:19;;;;;;;12.73;5.93;;;;;;;;;;5036509;28;20049;-72
2023/12/17 06:26:45;;;;;;;13.98;6.32;;;;;;;;;;5019206;28;20395;-73
2023/12/17 06:29:13;;;;;;;11.52;5.97;;;;;;;;;;5052501;28;20060;-73
2023/12/17 06:31:40;;;;;;;12.35;6.22;;;;;;;;;;5018172;28;20124;-72
2023/12/17 06:34:06;;;;;;;13.40;6.45;;;;;;;;;;5018542;28;20053;-73
2023/12/17 06:36:32;;;;;;;10.98;6.00;;;;;;;;;;5035862;28;20091;-72
2023/12/17 06:38:58;;;;;;;13.35;6.40;;;;;;;;;;5035956;28;20139;-72
2023/12/17 06:41:24;;;;;;;18.90;7.07;;;;;;;;;;5002178;28;20053;-72
2023/12/17 06:43:50;;;;;;;11.80;6.15;;;;;;;;;;5018023;28;20148;-73
2023/12/17 06:46:17;;;;;;;14.52;7.32;;;;;;;;;;5035712;28;20049;-72
2023/12/17 06:48:43;;;;;;;9.77;5.75;;;;;;;;;;5018198;28;20049;-72
2023/12/17 06:51:12;;;;;;;10.67;6.17;;;;;;;;;;5035535;28;20049;-72
2023/12/17 06:53:38;;;;;;;9.82;5.18;;;;;;;;;;5035796;28;20166;-73
2023/12/17 06:56:05;;;;;;;15.60;6.40;;;;;;;;;;5017983;28;20056;-72
2023/12/17 06:58:31;;;;;;;;;;;;;;;;;;5017975;28;20088;-72
2023/12/17 07:00:57;;;;;;;14.30;6.45;;;;;;;;;;5035204;28;19921;-73
2023/12/17 07:03:24;;;;;;;13.02;5.70;;;;;;;;;;5035265;28;20045;-73
2023/12/17 07:05:50;;;;;;;13.95;6.32;;;;;;;;;;5035345;28;20053;-74
2023/12/17 07:08:17;;;;;;;12.30;6.07;;;;;;;;;;5035716;28;20049;-73
2023/12/17 07:10:43;;;;;;;;;;;;;;;;;;5017955;28;20057;-72
2023/12/17 07:13:09;;;;;;;12.50;5.53;;;;;;;;;;5035238;28;19921;-72
2023/12/17 07:15:35;;;;;;;9.95;5.68;;;;;;;;;;5035114;28;20068;-73
2023/12/17 07:18:01;;;;;;;11.40;5.45;;;;;;;;;;5035123;28;20107;-71
2023/12/17 07:20:27;;;;;;;12.68;5.75;;;;;;;;;;5017823;28;20057;-73
2023/12/17 07:22:53;;;;;;;14.73;5.63;;;;;;;;;;5034926;28;20128;-72
2023/12/17 07:25:20;;;;;;;13.75;6.53;;;;;;;;;;5033928;28;20406;-73
2023/12/17 07:27:46;;;;;;;14.85;7.38;;;;;;;;;;5001097;28;20041;-73
2023/12/17 07:30:12;;;;;;;14.75;6.65;;;;;;;;;;5034845;28;20509;-73
2023/12/17 07:32:38;;;;;;;13.45;6.70;;;;;;;;;;5034826;28;20041;-72
2023/12/17 07:35:07;;;;;;;14.23;6.63;;;;;;;;;;5034740;28;20049;-73
2023/12/17 07:37:33;;;;;;;12.15;5.72;;;;;;;;;;5017174;28;20118;-72
2023/12/17 07:39:59;;;;;;;16.70;6.82;;;;;;;;;;5017275;28;20382;-72
2023/12/17 07:42:25;;;;;;;16.38;6.70;;;;;;;;;;5035097;28;20045;-73
2023/12/17 07:44:51;;;;;;;18.85;6.50;;;;;;;;;;5034598;28;20054;-73
2023/12/17 07:47:17;;;;;;;16.23;7.20;;;;;;;;;;5017386;28;20060;-74
2023/12/17 07:49:43;;;;;;;15.13;6.72;;;;;;;;;;5034428;28;20092;-72
2023/12/17 07:52:11;;;;;;;14.32;6.60;;;;;;;;;;5034968;28;20348;-73
2023/12/17 07:54:38;;;;;;;16.17;7.68;;;;;;;;;;5035424;28;20060;-74
2023/12/17 07:57:04;;;;;;;14.75;7.80;;;;;;;;;;5016910;28;20470;-73
2023/12/17 07:59:30;;;;;;;18.10;7.80;;;;;;;;;;5016673;28;20056;-72
2023/12/17 08:01:56;;;;;;;14.43;6.72;;;;;;;;;;5033692;28;20045;-72
2023/12/17 08:04:22;;;;;;;14.60;6.55;;;;;;;;;;5034240;28;20089;-71
2023/12/17 08:06:48;;;;;;;11.93;6.00;;;;;;;;;;5016450;28;20564;-72
2023/12/17 08:09:15;;;;;;;13.82;5.78;;;;;;;;;;5016081;28;20060;-72
2023/12/17 08:11:43;;;;;;;12.38;6.00;;;;;;;;;;5033674;28;20556;-72
2023/12/17 08:14:10;;;;;;;13.52;5.53;;;;;;;;;;5016564;28;20502;-73
2023/12/17 08:16:36;;;;;;;14.70;5.38;;;;;;;;;;5033909;28;20107;-73
2023/12/17 08:19:02;;;;;;;14.07;5.25;;;;;;;;;;5016863;28;20050;-74
2023/12/17 08:21:28;;;;;;;13.40;4.43;;;;;;;;;;5016236;28;20102;-73
2023/12/17 08:23:54;;;;;;;11.18;4.35;;;;;;;;;;5016798;28;20138;-72
2023/12/17 08:26:20;;;;;;;12.35;4.68;;;;;;;;;;5034590;28;20049;-74
2023/12/17 08:28:46;;;;;;;8.00;3.65;;;;;;;;;;5033754;28;20049;-71
2023/12/17 08:31:12;;;;;;;8.15;3.38;;;;;;;;;;5033737;28;20053;-71
2023/12/17 08:33:38;;;;;;;13.38;3.75;;;;;;;;;;5016214;28;20085;-73
2023/12/17 08:36:05;;;;;;;7.55;3.10;;;;;;;;;;5033825;28;20491;-73
2023/12/17 08:38:31;;;;;;;9.47;2.97;;;;;;;;;;5033738;28;20057;-73
2023/12/17 08:40:57;;;;;;;10.70;2.90;;;;;;;;;;5033555;28;20818;-72
2023/12/17 08:43:23;;;;;;;11.27;2.78;;;;;;;;;;5033530;28;20046;-72
2023/12/17 08:45:49;;;;;;;11.77;2.78;;;;;;;;;;5033968;28;20132;-72
2023/12/17 08:48:16;;;;;;;9.70;3.30;;;;;;;;;;5033106;28;20576;-73
2023/12/17 08:50:42;;;;;;;11.13;3.03;;;;;;;;;;5015763;28;20053;-72
2023/12/17 08:53:08;;;;;;;8.70;2.92;;;;;;;;;;5034108;28;20115;-73
2023/12/17 08:55:34;;;;;;;10.48;3.40;;;;;;;;;;5015644;28;20046;-71
2023/12/17 08:58:00;;;;;;;12.98;3.97;;;;;;;;;;5033141;28;20064;-72
2023/12/17 09:00:26;;;;;;;10.38;3.60;;;;;;;;;;5032858;28;20520;-72
2023/12/17 09:02:52;;;;;;;12.10;3.90;;;;;;;;;;5032964;28;20048;-71
2023/12/17 09:05:19;;;;;;;11.70;4.43;;;;;;;;;;5016011;28;20276;-72
2023/12/17 09:07:45;;;;;;;12.57;4.13;;;;;;;;;;5033730;28;20049;-71
2023/12/17 09:10:11;;;;;;;9.88;4.03;;;;;;;;;;5033974;28;20134;-72
2023/12/17 09:12:37;;;;;;;12.98;4.13;;;;;;;;;;5033979;28;20041;-72
2023/12/17 09:15:03;;;;;;;9.73;4.15;;;;;;;;;;5019605;28;20398;-71
2023/12/17 09:17:29;;;;;;;10.60;4.60;;;;;;;;;;5038198;28;20053;-72
2023/12/17 09:19:55;;;;;;;12.10;5.30;;;;;;;;;;5037245;28;20053;-72
2023/12/17 09:22:22;;;;;;;15.45;5.05;;;;;;;;;;5037074;28;20041;-72
2023/12/17 09:24:48;;;;;;;15.30;6.07;;;;;;;;;;5037068;28;20049;-71
2023/12/17 09:27:14;;;;;;;13.98;5.03;;;;;;;;;;5037033;28;20144;-72
2023/12/17 09:29:40;;;;;;;13.38;5.38;;;;;;;;;;5036925;28;20045;-72
2023/12/17 09:32:08;;;;;;;16.23;6.07;;;;;;;;;;5019457;28;20052;-71
2023/12/17 09:34:34;;;;;;;18.92;7.85;;;;;;;;;;5019376;28;20049;-74
2023/12/17 09:37:00;;;;;;;20.83;7.25;;;;;;;;;;5019590;28;20153;-72
2023/12/17 09:39:26;;;;;;;22.23;9.07;;;;;;;;;;5019245;28;20115;-71
2023/12/17 09:41:52;;;;;;;21.25;7.95;;;;;;;;;;5019514;28;20049;-75
2023/12/17 09:44:19;;;;;;;24.48;9.02;;;;;;;;;;5019154;28;20052;-73
2023/12/17 09:46:45;;;;;;;21.10;8.50;;;;;;;;;;5037468;28;20061;-73
2023/12/17 09:49:11;;;;;;;23.83;9.27;;;;;;;;;;5036884;28;20287;-72
2023/12/17 09:51:37;;;;;;;27.23;9.52;;;;;;;;;;5003592;28;20049;-72
2023/12/17 09:54:05;;;;;;;22.02;9.98;;;;;;;;;;5019081;28;20506;-73
2023/12/17 09:56:31;;;;;;;24.85;10.50;;;;;;;;;;5003042;28;20140;-73
2023/12/17 09:58:57;;;;;;;29.73;10.18;;;;;;;;;;5018918;28;20054;-73
2023/12/17 10:01:24;;;;;;;22.90;10.52;;;;;;;;;;5036343;28;20187;-72
2023/12/17 10:03:50;;;;;;;27.55;10.65;;;;;;;;;;5036233;28;20042;-72
2023/12/17 10:06:20;;;;;;;25.42;9.98;;;;;;;;;;5036302;28;20042;-72
2023/12/17 10:08:47;;;;;;;27.10;10.25;;;;;;;;;;5036191;28;20394;-72
2023/12/17 10:11:14;;;;;;;22.98;10.43;;;;;;;;;;5018604;28;20057;-72
2023/12/17 10:13:40;;;;;;;26.15;11.75;;;;;;;;;;5036224;28;20045;-73
2023/12/17 10:16:06;;;;;;;20.42;8.13;;;;;;;;;;5018360;28;20041;-73
2023/12/17 10:18:33;;;;;;;17.95;8.10;;;;;;;;;;5018473;28;20535;-72
2023/12/17 10:21:04;;;;;;;20.90;9.00;;;;;;;;;;5036058;28;20121;-73
2023/12/17 10:23:45;;;;;;;16.90;7.10;;;;;;;;;;5035619;28;20541;-73
2023/12/17 10:26:11;;;;;;;18.73;7.43;;;;;;;;;;5035414;28;20046;-72
2023/12/17 10:28:37;;;;;;;20.58;9.18;;;;;;;;;;5036419;28;20395;-72
2023/12/17 10:31:03;;;;;;;17.92;8.07;;;;;;;;;;5036667;28;20126;-71
2023/12/17 10:33:34;;;;;;;15.23;6.95;;;;;;;;;;5018015;28;20046;-73
2023/12/17 10:36:00;;;;;;;15.90;7.00;;;;;;;;;;5035781;28;20052;-73
2023/12/17 10:38:27;;;;;;;16.40;6.25;;;;;;;;;;5035737;28;20053;-72
2023/12/17 10:40:53;;;;;;;;;;;;;;;;;;5036183;28;20057;-72
2023/12/17 10:43:22;;;;;;;17.30;6.77;;;;;;;;;;5036487;28;19928;-73
2023/12/17 10:45:49;;;;;;;16.27;6.63;;;;;;;;;;5035669;28;20049;-72
2023/12/17 10:48:16;;;;;;;15.55;7.82;;;;;;;;;;5035655;28;20054;-72
2023/12/17 10:50:42;;;;;;;15.70;7.03;;;;;;;;;;5018198;28;20049;-73
2023/12/17 10:53:09;;;;;;;17.45;7.38;;;;;;;;;;5001870;28;20060;-72
2023/12/17 10:55:35;;;;;;;14.60;7.65;;;;;;;;;;5035657;28;20401;-73
2023/12/17 10:58:09;;;;;;;17.38;7.43;;;;;;;;;;5036136;28;20053;-72
2023/12/17 11:00:37;;;;;;;15.10;7.93;;;;;;;;;;5017846;28;20136;-72
2023/12/17 11:03:07;;;;;;;15.45;7.45;;;;;;;;;;5035338;28;20041;-72
2023/12/17 11:05:33;;;;;;;14.48;7.30;;;;;;;;;;5036065;28;20041;-73
2023/12/17 11:07:59;;;;;;;19.07;7.73;;;;;;;;;;5036200;28;20056;-73
2023/12/17 11:10:26;;;;;;;16.63;8.00;;;;;;;;;;5036299;28;20709;-72
2023/12/17 11:12:53;;;;;;;19.27;7.90;;;;;;;;;;5018128;28;20099;-72
2023/12/17 11:15:23;;;;;;;20.15;9.20;;;;;;;;;;5018493;28;20053;-74
2023/12/17 11:17:55;;;;;;;18.08;8.55;;;;;;;;;;5035270;28;20041;-72
2023/12/17 11:20:22;;;;;;;18.30;8.05;;;;;;;;;;5035226;28;20406;-73
2023/12/17 11:22:48;;;;;;;20.65;8.30;;;;;;;;;;5017571;28;20056;-73
2023/12/17 11:25:14;;;;;;;20.10;8.95;;;;;;;;;;5035011;28;20046;-73
2023/12/17 11:27:40;;;;;;;20.83;8.95;;;;;;;;;;5034316;28;20060;-73
2023/12/17 11:30:25;;;;;;;26.83;9.77;;;;;;;;;;5035211;28;20049;-72
2023/12/17 11:32:51;;;;;;;18.83;8.82;;;;;;;;;;5035068;28;20280;-73
2023/12/17 11:35:18;;;;;;;17.80;8.45;;;;;;;;;;5018223;28;20046;-71
2023/12/17 11:37:44;;;;;;;;;;;;;;;;;;5034687;28;20109;-72
2023/12/17 11:40:10;;;;;;;20.73;8.30;;;;;;;;;;5034892;28;20386;-71
2023/12/17 11:42:40;;;;;;;20.70;8.43;;;;;;;;;;5050065;28;20056;-72
2023/12/17 11:45:06;;;;;;;23.30;10.15;;;;;;;;;;5034780;28;20107;-73
2023/12/17 11:47:32;;;;;;;21.67;8.23;;;;;;;;;;5017368;28;20056;-72
2023/12/17 11:49:59;;;;;;;21.00;9.10;;;;;;;;;;5034476;28;20045;-73
2023/12/17 11:52:26;;;;;;;23.80;10.27;;;;;;;;;;5034612;28;20038;-72
2023/12/17 11:54:58;;;;;;;30.03;12.17;;;;;;;;;;5017855;28;20412;-74
2023/12/17 11:57:25;;;;;;;24.98;10.13;;;;;;;;;;5017620;28;20289;-72
2023/12/17 11:59:51;;;;;;;25.67;10.85;;;;;;;;;;5035296;28;20133;-73
2023/12/17 12:02:18;;;;;;;29.30;11.68;;;;;;;;;;5017347;28;20426;-72
2023/12/17 12:04:45;;;;;;;26.15;10.60;;;;;;;;;;5034270;28;20099;-72
2023/12/17 12:07:11;;;;;;;27.25;10.75;;;;;;;;;;5016446;28;20046;-71
2023/12/17 12:09:38;;;;;;;24.25;9.75;;;;;;;;;;5033811;28;20114;-71
2023/12/17 12:12:20;;;;;;;26.92;11.30;;;;;;;;;;5017188;28;20143;-73
2023/12/17 12:14:50;;;;;;;24.33;9.75;;;;;;;;;;5034501;28;20050;-71
2023/12/17 12:17:35;;;;;;;23.77;10.25;;;;;;;;;;5049306;28;20469;-74
2023/12/17 12:20:01;;;;;;;24.00;10.25;;;;;;;;;;5034764;28;20072;-72
2023/12/17 12:22:28;;;;;;;24.58;10.02;;;;;;;;;;5049121;28;20038;-72
2023/12/17 12:24:57;;;;;;;24.70;10.38;;;;;;;;;;5033904;28;20052;-72
2023/12/17 12:27:24;;;;;;;24.75;9.98;;;;;;;;;;5033738;28;20176;-73
2023/12/17 12:29:52;;;;;;;21.83;10.55;;;;;;;;;;5033748;28;20484;-72
2023/12/17 12:32:27;;;;;;;22.88;9.98;;;;;;;;;;5033616;28;20124;-72
2023/12/17 12:34:55;;;;;;;23.58;10.48;;;;;;;;;;5034397;28;20422;-73
2023/12/17 12:37:21;;;;;;;;;;;;;;;;;;5034401;28;20053;-73
2023/12/17 12:39:48;;;;;;;18.67;7.73;;;;;;;;;;5017053;28;19927;-72
2023/12/17 12:42:18;;;;;;;25.42;9.95;;;;;;;;;;5033667;28;20084;-73
2023/12/17 12:44:44;;;;;;;25.15;9.98;;;;;;;;;;5033511;28;20076;-73
2023/12/17 12:47:10;;;;;;;26.00;11.25;;;;;;;;;;5033762;28;20099;-72
2023/12/17 12:49:36;;;;;;;22.67;9.80;;;;;;;;;;5033067;28;20425;-73
2023/12/17 12:52:02;;;;;;;25.10;10.35;;;;;;;;;;5016029;28;20049;-71
2023/12/17 12:54:28;;;;;;;25.08;12.15;;;;;;;;;;5033284;28;20052;-73
2023/12/17 12:56:54;;;;;;;28.08;10.98;;;;;;;;;;5016100;28;20132;-73
2023/12/17 12:59:20;;;;;;;26.17;10.38;;;;;;;;;;5033318;28;20049;-73
2023/12/17 13:01:46;;;;;;;24.05;10.38;;;;;;;;;;5033247;28;20132;-73
2023/12/17 13:04:12;;;;;;;28.10;11.95;;;;;;;;;;5033205;28;20053;-71
2023/12/17 13:06:40;;;;;;;26.77;10.50;;;;;;;;;;5033326;28;20380;-71
2023/12/17 13:09:08;;;;;;;29.50;12.65;;;;;;;;;;5033167;28;20172;-72
2023/12/17 13:11:34;;;;;;;24.65;11.20;;;;;;;;;;5031907;28;20129;-72
2023/12/17 13:14:03;;;;;;;25.25;10.13;;;;;;;;;;5033199;28;20054;-71
2023/12/17 13:16:29;;;;;;;24.75;10.75;;;;;;;;;;5033860;28;20176;-72
2023/12/17 13:18:56;;;;;;;23.20;9.77;;;;;;;;;;5033153;28;20054;-72
2023/12/17 13:21:23;;;;;;;23.38;10.40;;;;;;;;;;5033888;28;20045;-72
2023/12/17 13:23:50;;;;;;;23.00;9.52;;;;;;;;;;5033843;28;20045;-71
2023/12/17 13:26:19;;;;;;;25.95;11.15;;;;;;;;;;5033236;28;20088;-72
2023/12/17 13:28:45;;;;;;;21.95;9.00;;;;;;;;;;5033111;28;20057;-71
2023/12/17 13:31:11;;;;;;;23.40;9.82;;;;;;;;;;5033011;28;20083;-71
2023/12/17 13:33:37;;;;;;;23.42;9.45;;;;;;;;;;5015444;28;20053;-73
2023/12/17 13:36:05;;;;;;;23.83;10.40;;;;;;;;;;5015928;28;20080;-71
2023/12/17 13:38:31;;;;;;;;;;;;;;;;;;5016330;28;20093;-72
2023/12/17 13:40:57;;;;;;;22.95;9.02;;;;;;;;;;5015369;28;20338;-70
2023/12/17 13:43:23;;;;;;;22.48;9.35;;;;;;;;;;4998931;28;20413;-72
2023/12/17 13:45:49;;;;;;;22.40;8.98;;;;;;;;;;4999146;28;20054;-72
2023/12/17 13:48:16;;;;;;;23.05;9.90;;;;;;;;;;5015624;28;20046;-72
2023/12/17 13:50:43;;;;;;;23.95;9.32;;;;;;;;;;5015461;28;20058;-72
2023/12/17 13:53:09;;;;;;;21.73;9.38;;;;;;;;;;5032666;28;20568;-73
2023/12/17 13:55:35;;;;;;;22.92;10.23;;;;;;;;;;5016106;28;20132;-71
2023/12/17 13:58:01;;;;;;;24.20;10.05;;;;;;;;;;5032796;28;20379;-72
2023/12/17 14:00:27;;;;;;;21.38;8.95;;;;;;;;;;5034960;28;20050;-72
2023/12/17 14:02:54;;;;;;;21.55;8.95;;;;;;;;;;5036088;28;20482;-71
2023/12/17 14:05:20;;;;;;;21.90;9.48;;;;;;;;;;5036103;28;20483;-72
2023/12/17 14:07:46;;;;;;;22.77;8.87;;;;;;;;;;5036664;28;20056;-73
2023/12/17 14:10:12;;;;;;;23.25;9.90;;;;;;;;;;5018436;28;20056;-71
2023/12/17 14:12:39;;;;;;;26.35;9.70;;;;;;;;;;5036210;28;20049;-75
2023/12/17 14:15:06;;;;;;;23.67;10.57;;;;;;;;;;5036320;28;20045;-72
2023/12/17 14:17:33;;;;;;;24.83;10.68;;;;;;;;;;5036032;28;20048;-72
2023/12/17 14:19:59;;;;;;;24.15;10.05;;;;;;;;;;5036352;28;20437;-72
2023/12/17 14:22:27;;;;;;;28.00;9.80;;;;;;;;;;5019155;28;20076;-73
2023/12/17 14:24:53;;;;;;;26.48;10.07;;;;;;;;;;5035997;28;20071;-71
2023/12/17 14:27:19;;;;;;;24.08;9.93;;;;;;;;;;5035954;28;20091;-71